createdAt,value
2022-10-31T00:00:10.253Z,7.88
2022-10-31T00:00:41.768Z,7.88
2022-10-31T00:01:12.825Z,7.88
2022-10-31T00:01:45.243Z,7.88
2022-10-31T00:02:17.025Z,7.88
2022-10-31T00:02:48.714Z,7.88
2022-10-31T00:03:20.876Z,7.88
2022-10-31T00:03:52.848Z,7.77
2022-10-31T00:04:24.870Z,7.77
2022-10-31T00:04:56.795Z,7.77
2022-10-31T00:05:29.145Z,7.77
2022-10-31T00:06:00.709Z,7.77
2022-10-31T00:06:32.737Z,7.77
2022-10-31T00:07:05.101Z,7.77
2022-10-31T00:07:36.502Z,7.77
2022-10-31T00:08:08.716Z,7.77
2022-10-31T00:08:40.867Z,7.77
2022-10-31T00:09:12.501Z,7.77
2022-10-31T00:09:44.681Z,7.77
2022-10-31T00:10:16.948Z,7.77
2022-10-31T00:10:48.684Z,7.77
2022-10-31T00:11:20.447Z,7.77
2022-10-31T00:11:36.380Z,7.77
2022-10-31T00:12:08.365Z,7.77
2022-10-31T00:12:52.445Z,7.77
2022-10-31T00:13:24.464Z,7.77
2022-10-31T00:13:56.265Z,7.77
2022-10-31T00:14:28.464Z,7.77
2022-10-31T00:15:00.805Z,7.77
2022-10-31T00:15:32.409Z,7.77
2022-10-31T00:16:04.452Z,7.72
2022-10-31T00:16:20.400Z,7.72
2022-10-31T00:17:04.400Z,7.72
2022-10-31T00:17:36.209Z,7.72
2022-10-31T00:18:08.207Z,7.72
2022-10-31T00:18:40.096Z,7.72
2022-10-31T00:19:12.018Z,7.72
2022-10-31T00:19:44.549Z,7.72
2022-10-31T00:20:16.456Z,7.72
2022-10-31T00:20:48.118Z,7.72
2022-10-31T00:21:04.537Z,7.72
2022-10-31T00:21:35.977Z,7.72
2022-10-31T00:22:20.044Z,7.72
2022-10-31T00:22:52.032Z,7.72
2022-10-31T00:23:23.979Z,7.61
2022-10-31T00:23:55.957Z,7.61
2022-10-31T00:24:28.013Z,7.61
2022-10-31T00:24:59.977Z,7.61
2022-10-31T00:25:31.968Z,7.61
2022-10-31T00:26:04.041Z,7.61
2022-10-31T00:26:36.037Z,7.61
2022-10-31T00:27:07.932Z,7.61
2022-10-31T00:27:39.718Z,7.61
2022-10-31T00:28:11.980Z,7.61
2022-10-31T00:28:43.773Z,7.61
2022-10-31T00:29:15.778Z,7.61
2022-10-31T00:29:47.713Z,7.61
2022-10-31T00:30:06.202Z,7.61
2022-10-31T00:30:47.791Z,7.61
2022-10-31T00:31:19.781Z,7.61
2022-10-31T00:31:51.461Z,7.61
2022-10-31T00:32:23.494Z,7.61
2022-10-31T00:32:55.829Z,7.61
2022-10-31T00:33:27.599Z,7.61
2022-10-31T00:33:59.476Z,7.61
2022-10-31T00:34:31.378Z,7.61
2022-10-31T00:35:04.360Z,7.61
2022-10-31T00:35:35.553Z,7.61
2022-10-31T00:36:07.279Z,7.61
2022-10-31T00:36:39.359Z,7.72
2022-10-31T00:37:11.367Z,7.61
2022-10-31T00:37:43.381Z,7.61
2022-10-31T00:38:15.354Z,7.61
2022-10-31T00:38:47.433Z,7.61
2022-10-31T00:39:03.713Z,7.61
2022-10-31T00:39:35.229Z,7.61
2022-10-31T00:40:19.636Z,7.61
2022-10-31T00:40:51.060Z,7.61
2022-10-31T00:41:23.189Z,7.61
2022-10-31T00:41:55.255Z,7.61
2022-10-31T00:42:27.179Z,7.61
2022-10-31T00:42:59.787Z,7.61
2022-10-31T00:43:31.050Z,7.50
2022-10-31T00:44:03.798Z,7.50
2022-10-31T00:44:35.215Z,7.50
2022-10-31T00:45:07.564Z,7.50
2022-10-31T00:45:39.148Z,7.50
2022-10-31T00:46:10.949Z,7.50
2022-10-31T00:46:42.945Z,7.50
2022-10-31T00:47:15.242Z,7.50
2022-10-31T00:47:46.938Z,7.50
2022-10-31T00:48:03.742Z,7.50
2022-10-31T00:48:46.934Z,7.50
2022-10-31T00:49:18.831Z,7.50
2022-10-31T00:49:50.753Z,7.50
2022-10-31T00:50:22.891Z,7.50
2022-10-31T00:50:54.892Z,7.50
2022-10-31T00:51:26.848Z,7.50
2022-10-31T00:51:58.579Z,7.50
2022-10-31T00:52:30.690Z,7.50
2022-10-31T00:53:03.268Z,7.50
2022-10-31T00:53:34.684Z,7.50
2022-10-31T00:54:06.521Z,7.50
2022-10-31T00:54:38.694Z,7.50
2022-10-31T00:55:10.900Z,7.50
2022-10-31T00:55:42.591Z,7.50
2022-10-31T00:56:14.796Z,7.38
2022-10-31T00:56:46.583Z,7.38
2022-10-31T00:57:03.208Z,7.38
2022-10-31T00:57:34.381Z,7.38
2022-10-31T00:58:18.731Z,7.50
2022-10-31T00:58:50.406Z,7.50
2022-10-31T00:59:22.470Z,7.50
2022-10-31T00:59:54.578Z,7.50
2022-10-31T01:00:26.967Z,7.50
2022-10-31T01:00:58.315Z,7.50
2022-10-31T01:01:14.823Z,7.50
2022-10-31T01:01:46.568Z,7.50
2022-10-31T01:02:30.594Z,7.50
2022-10-31T01:03:03.307Z,7.50
2022-10-31T01:03:34.185Z,7.38
2022-10-31T01:04:06.239Z,7.38
2022-10-31T01:04:38.465Z,7.38
2022-10-31T01:05:10.536Z,7.38
2022-10-31T01:05:42.163Z,7.38
2022-10-31T01:06:14.303Z,7.38
2022-10-31T01:06:46.161Z,7.27
2022-10-31T01:07:18.319Z,7.27
2022-10-31T01:07:50.091Z,7.27
2022-10-31T01:08:21.966Z,7.27
2022-10-31T01:08:54.210Z,7.27
2022-10-31T01:09:26.120Z,7.27
2022-10-31T01:09:57.965Z,7.27
2022-10-31T01:10:30.276Z,7.27
2022-10-31T01:10:46.150Z,7.27
2022-10-31T01:11:17.979Z,7.27
2022-10-31T01:11:34.062Z,7.27
2022-10-31T01:12:05.845Z,7.27
2022-10-31T01:12:37.885Z,7.27
2022-10-31T01:13:10.140Z,7.27
2022-10-31T01:13:41.902Z,7.27
2022-10-31T01:14:13.718Z,7.27
2022-10-31T01:14:45.839Z,7.27
2022-10-31T01:15:04.574Z,7.27
2022-10-31T01:15:33.662Z,7.27
2022-10-31T01:16:17.945Z,7.22
2022-10-31T01:16:49.638Z,7.22
2022-10-31T01:17:21.761Z,7.22
2022-10-31T01:17:53.746Z,7.22
2022-10-31T01:18:25.789Z,7.22
2022-10-31T01:18:57.611Z,7.22
2022-10-31T01:19:29.708Z,7.22
2022-10-31T01:20:02.411Z,7.22
2022-10-31T01:20:33.615Z,7.22
2022-10-31T01:21:05.629Z,7.22
2022-10-31T01:21:21.663Z,7.27
2022-10-31T01:21:53.664Z,7.27
2022-10-31T01:22:37.444Z,7.27
2022-10-31T01:23:09.818Z,7.22
2022-10-31T01:23:41.455Z,7.22
2022-10-31T01:24:13.387Z,7.22
2022-10-31T01:24:45.709Z,7.22
2022-10-31T01:25:17.740Z,7.22
2022-10-31T01:25:49.265Z,7.22
2022-10-31T01:26:21.359Z,7.22
2022-10-31T01:26:53.315Z,7.22
2022-10-31T01:27:25.549Z,7.27
2022-10-31T01:27:57.568Z,7.27
2022-10-31T01:28:29.189Z,7.27
2022-10-31T01:28:45.706Z,7.27
2022-10-31T01:29:17.192Z,7.27
2022-10-31T01:29:33.411Z,7.22
2022-10-31T01:30:06.615Z,7.22
2022-10-31T01:30:37.243Z,7.22
2022-10-31T01:31:09.204Z,7.22
2022-10-31T01:31:41.228Z,7.11
2022-10-31T01:32:13.009Z,7.11
2022-10-31T01:32:45.336Z,7.11
2022-10-31T01:33:01.450Z,7.11
2022-10-31T01:33:33.038Z,7.11
2022-10-31T01:34:17.190Z,7.11
2022-10-31T01:34:48.987Z,7.11
2022-10-31T01:35:21.172Z,7.11
2022-10-31T01:35:52.828Z,7.11
2022-10-31T01:36:25.062Z,7.11
2022-10-31T01:36:56.988Z,7.11
2022-10-31T01:37:28.726Z,7.11
2022-10-31T01:37:45.291Z,7.11
2022-10-31T01:38:28.944Z,7.11
2022-10-31T01:39:01.306Z,7.11
2022-10-31T01:39:32.745Z,7.11
2022-10-31T01:40:05.041Z,7.22
2022-10-31T01:40:36.689Z,7.22
2022-10-31T01:41:08.801Z,7.22
2022-10-31T01:41:40.641Z,7.11
2022-10-31T01:42:12.590Z,7.11
2022-10-31T01:42:44.806Z,7.11
2022-10-31T01:43:16.689Z,7.11
2022-10-31T01:43:48.577Z,7.11
2022-10-31T01:44:20.542Z,7.11
2022-10-31T01:44:52.578Z,7.11
2022-10-31T01:45:25.114Z,7.11
2022-10-31T01:45:56.469Z,7.11
2022-10-31T01:46:28.388Z,7.11
2022-10-31T01:46:45.000Z,7.11
2022-10-31T01:47:16.308Z,7.11
2022-10-31T01:47:32.597Z,7.11
2022-10-31T01:48:04.734Z,7.11
2022-10-31T01:48:36.451Z,7.11
2022-10-31T01:49:08.450Z,7.11
2022-10-31T01:49:40.430Z,7.11
2022-10-31T01:50:12.445Z,7.11
2022-10-31T01:50:44.511Z,7.11
2022-10-31T01:51:16.261Z,7.11
2022-10-31T01:51:48.366Z,7.11
2022-10-31T01:52:20.110Z,7.11
2022-10-31T01:52:52.218Z,7.11
2022-10-31T01:53:26.872Z,7.11
2022-10-31T01:53:56.307Z,7.11
2022-10-31T01:54:28.144Z,7.11
2022-10-31T01:54:44.361Z,7.11
2022-10-31T01:55:30.393Z,7.11
2022-10-31T01:56:00.190Z,7.11
2022-10-31T01:56:32.120Z,7.11
2022-10-31T01:57:04.544Z,7.11
2022-10-31T01:57:36.004Z,7.11
2022-10-31T01:58:08.082Z,7.11
2022-10-31T01:58:40.150Z,7.11
2022-10-31T01:59:11.909Z,7.11
2022-10-31T01:59:44.019Z,7.11
2022-10-31T02:00:17.395Z,7.11
2022-10-31T02:00:47.997Z,7.00
2022-10-31T02:01:19.885Z,7.00
2022-10-31T02:01:52.027Z,7.00
2022-10-31T02:02:24.192Z,7.00
2022-10-31T02:02:55.835Z,7.00
2022-10-31T02:03:27.829Z,7.11
2022-10-31T02:03:43.847Z,7.11
2022-10-31T02:04:15.907Z,7.11
2022-10-31T02:04:31.718Z,7.11
2022-10-31T02:05:04.842Z,7.11
2022-10-31T02:05:35.586Z,7.11
2022-10-31T02:06:07.489Z,7.11
2022-10-31T02:06:39.781Z,7.11
2022-10-31T02:07:11.722Z,7.00
2022-10-31T02:07:43.522Z,7.00
2022-10-31T02:07:59.661Z,7.00
2022-10-31T02:08:31.358Z,7.00
2022-10-31T02:09:15.659Z,7.00
2022-10-31T02:09:47.581Z,7.00
2022-10-31T02:10:19.755Z,7.00
2022-10-31T02:10:51.506Z,7.00
2022-10-31T02:11:23.436Z,7.00
2022-10-31T02:11:55.642Z,7.00
2022-10-31T02:12:27.336Z,7.00
2022-10-31T02:12:59.690Z,7.11
2022-10-31T02:13:31.453Z,7.11
2022-10-31T02:14:04.077Z,7.11
2022-10-31T02:14:35.169Z,7.11
2022-10-31T02:15:08.221Z,7.11
2022-10-31T02:15:39.549Z,7.11
2022-10-31T02:16:11.397Z,7.11
2022-10-31T02:16:43.254Z,7.11
2022-10-31T02:16:59.392Z,7.00
2022-10-31T02:17:43.211Z,7.00
2022-10-31T02:17:59.680Z,7.00
2022-10-31T02:18:43.321Z,7.00
2022-10-31T02:19:15.414Z,7.00
2022-10-31T02:19:47.111Z,7.00
2022-10-31T02:20:19.444Z,7.00
2022-10-31T02:20:51.205Z,7.00
2022-10-31T02:21:23.034Z,7.00
2022-10-31T02:21:55.799Z,7.00
2022-10-31T02:22:27.070Z,7.11
2022-10-31T02:22:58.984Z,7.00
2022-10-31T02:23:31.309Z,7.00
2022-10-31T02:24:03.793Z,7.00
2022-10-31T02:24:34.865Z,7.00
2022-10-31T02:25:07.131Z,7.00
2022-10-31T02:25:39.052Z,7.00
2022-10-31T02:26:10.877Z,7.00
2022-10-31T02:26:42.870Z,7.00
2022-10-31T02:26:58.971Z,7.00
2022-10-31T02:27:30.910Z,7.11
2022-10-31T02:28:14.866Z,7.11
2022-10-31T02:28:46.587Z,7.11
2022-10-31T02:29:18.800Z,7.11
2022-10-31T02:29:50.770Z,7.11
2022-10-31T02:30:23.076Z,7.11
2022-10-31T02:30:54.947Z,7.11
2022-10-31T02:31:26.641Z,7.00
2022-10-31T02:31:58.652Z,7.00
2022-10-31T02:32:30.900Z,7.00
2022-10-31T02:33:03.531Z,7.00
2022-10-31T02:33:18.721Z,7.00
2022-10-31T02:33:50.373Z,7.00
2022-10-31T02:34:34.694Z,7.00
2022-10-31T02:35:06.896Z,7.00
2022-10-31T02:35:38.702Z,7.00
2022-10-31T02:36:10.677Z,7.00
2022-10-31T02:36:42.595Z,7.11
2022-10-31T02:37:14.646Z,7.11
2022-10-31T02:37:46.348Z,7.11
2022-10-31T02:38:18.360Z,7.11
2022-10-31T02:38:50.314Z,7.11
2022-10-31T02:39:22.377Z,7.11
2022-10-31T02:39:54.404Z,7.11
2022-10-31T02:40:26.467Z,7.11
2022-10-31T02:40:58.419Z,7.11
2022-10-31T02:41:30.435Z,7.11
2022-10-31T02:42:02.461Z,7.11
2022-10-31T02:42:34.238Z,7.00
2022-10-31T02:43:06.375Z,7.00
2022-10-31T02:43:38.199Z,7.00
2022-10-31T02:44:10.192Z,7.00
2022-10-31T02:44:42.076Z,7.00
2022-10-31T02:45:15.194Z,7.00
2022-10-31T02:45:46.138Z,7.00
2022-10-31T02:46:18.069Z,7.00
2022-10-31T02:46:50.050Z,7.00
2022-10-31T02:47:22.040Z,7.00
2022-10-31T02:47:54.243Z,7.00
2022-10-31T02:48:26.004Z,7.00
2022-10-31T02:48:42.034Z,7.00
2022-10-31T02:49:25.929Z,7.00
2022-10-31T02:49:57.901Z,7.00
2022-10-31T02:50:30.223Z,7.00
2022-10-31T02:51:01.903Z,6.88
2022-10-31T02:51:33.879Z,6.88
2022-10-31T02:52:05.877Z,6.88
2022-10-31T02:52:37.834Z,6.88
2022-10-31T02:53:09.947Z,6.88
2022-10-31T02:53:41.750Z,6.88
2022-10-31T02:54:13.893Z,6.88
2022-10-31T02:54:45.728Z,6.88
2022-10-31T02:55:17.703Z,6.88
2022-10-31T02:55:49.647Z,6.88
2022-10-31T02:56:21.705Z,6.88
2022-10-31T02:56:53.573Z,6.88
2022-10-31T02:57:25.643Z,6.88
2022-10-31T02:57:41.571Z,6.88
2022-10-31T02:58:13.789Z,6.88
2022-10-31T02:58:57.462Z,6.88
2022-10-31T02:59:29.504Z,6.88
2022-10-31T03:00:04.235Z,6.88
2022-10-31T03:00:33.518Z,6.88
2022-10-31T03:01:05.640Z,6.88
2022-10-31T03:01:37.676Z,6.77
2022-10-31T03:02:09.570Z,6.77
2022-10-31T03:02:41.517Z,6.77
2022-10-31T03:03:13.325Z,6.77
2022-10-31T03:03:45.363Z,6.77
2022-10-31T03:04:17.116Z,6.77
2022-10-31T03:04:49.151Z,6.77
2022-10-31T03:05:21.429Z,6.77
2022-10-31T03:05:53.175Z,6.77
2022-10-31T03:06:25.328Z,6.77
2022-10-31T03:06:41.282Z,6.77
2022-10-31T03:07:25.267Z,6.77
2022-10-31T03:07:57.201Z,6.77
2022-10-31T03:08:29.287Z,6.77
2022-10-31T03:09:01.184Z,6.77
2022-10-31T03:09:33.019Z,6.77
2022-10-31T03:10:05.442Z,6.77
2022-10-31T03:10:37.123Z,6.77
2022-10-31T03:11:08.807Z,6.77
2022-10-31T03:11:41.304Z,6.77
2022-10-31T03:12:13.080Z,6.77
2022-10-31T03:12:47.794Z,6.77
2022-10-31T03:13:16.901Z,6.77
2022-10-31T03:13:48.899Z,6.77
2022-10-31T03:14:20.901Z,6.77
2022-10-31T03:14:52.825Z,6.77
2022-10-31T03:15:25.369Z,6.77
2022-10-31T03:15:40.985Z,6.77
2022-10-31T03:16:12.839Z,6.77
2022-10-31T03:16:56.763Z,6.77
2022-10-31T03:17:28.791Z,6.77
2022-10-31T03:18:00.955Z,6.77
2022-10-31T03:18:32.510Z,6.77
2022-10-31T03:19:05.203Z,6.77
2022-10-31T03:19:36.639Z,6.77
2022-10-31T03:20:08.715Z,6.77
2022-10-31T03:20:40.728Z,6.77
2022-10-31T03:20:56.877Z,6.77
2022-10-31T03:21:28.515Z,6.77
2022-10-31T03:22:12.597Z,6.77
2022-10-31T03:22:44.458Z,6.77
2022-10-31T03:23:16.370Z,6.77
2022-10-31T03:23:48.494Z,6.77
2022-10-31T03:24:20.427Z,6.77
2022-10-31T03:24:52.319Z,6.77
2022-10-31T03:25:24.838Z,6.77
2022-10-31T03:25:56.562Z,6.77
2022-10-31T03:26:28.460Z,6.72
2022-10-31T03:27:00.329Z,6.72
2022-10-31T03:27:32.289Z,6.72
2022-10-31T03:28:05.495Z,6.72
2022-10-31T03:28:36.221Z,6.72
2022-10-31T03:29:08.216Z,6.72
2022-10-31T03:29:40.547Z,6.72
2022-10-31T03:29:56.523Z,6.72
2022-10-31T03:30:40.802Z,6.72
2022-10-31T03:31:12.026Z,6.72
2022-10-31T03:31:28.111Z,6.72
2022-10-31T03:32:00.200Z,6.72
2022-10-31T03:32:44.225Z,6.72
2022-10-31T03:33:16.258Z,6.72
2022-10-31T03:33:47.921Z,6.72
2022-10-31T03:34:20.182Z,6.72
2022-10-31T03:34:52.103Z,6.72
2022-10-31T03:35:25.735Z,6.72
2022-10-31T03:35:57.086Z,6.72
2022-10-31T03:36:27.893Z,6.72
2022-10-31T03:36:59.931Z,6.72
2022-10-31T03:37:31.954Z,6.72
2022-10-31T03:38:06.945Z,6.72
2022-10-31T03:38:35.821Z,6.72
2022-10-31T03:39:07.921Z,6.72
2022-10-31T03:39:40.054Z,6.72
2022-10-31T03:40:12.009Z,6.72
2022-10-31T03:40:27.810Z,6.72
2022-10-31T03:41:11.745Z,6.72
2022-10-31T03:41:27.755Z,6.72
2022-10-31T03:42:11.706Z,6.72
2022-10-31T03:42:43.865Z,6.72
2022-10-31T03:43:15.629Z,6.61
2022-10-31T03:43:47.632Z,6.61
2022-10-31T03:44:19.832Z,6.61
2022-10-31T03:44:51.498Z,6.61
2022-10-31T03:45:25.815Z,6.61
2022-10-31T03:45:39.902Z,6.61
2022-10-31T03:46:23.568Z,6.61
2022-10-31T03:46:55.632Z,6.72
2022-10-31T03:47:27.284Z,6.72
2022-10-31T03:47:59.711Z,6.72
2022-10-31T03:48:31.438Z,6.72
2022-10-31T03:49:03.995Z,6.72
2022-10-31T03:49:35.335Z,6.72
2022-10-31T03:50:07.605Z,6.72
2022-10-31T03:50:39.383Z,6.72
2022-10-31T03:51:11.447Z,6.72
2022-10-31T03:51:43.463Z,6.61
2022-10-31T03:52:15.277Z,6.61
2022-10-31T03:52:47.270Z,6.61
2022-10-31T03:53:19.278Z,6.61
2022-10-31T03:53:51.289Z,6.61
2022-10-31T03:54:28.183Z,6.61
2022-10-31T03:54:55.285Z,6.61
2022-10-31T03:55:27.386Z,6.61
2022-10-31T03:55:59.156Z,6.61
2022-10-31T03:56:30.954Z,6.61
2022-10-31T03:57:03.499Z,6.61
2022-10-31T03:57:35.053Z,6.61
2022-10-31T03:58:07.111Z,6.61
2022-10-31T03:58:38.876Z,6.61
2022-10-31T03:58:55.414Z,6.61
2022-10-31T03:59:26.822Z,6.61
2022-10-31T04:00:12.441Z,6.61
2022-10-31T04:00:43.111Z,6.61
2022-10-31T04:01:14.856Z,6.72
2022-10-31T04:01:47.234Z,6.72
2022-10-31T04:02:19.243Z,6.72
2022-10-31T04:02:50.933Z,6.72
2022-10-31T04:03:22.727Z,6.61
2022-10-31T04:03:38.994Z,6.61
2022-10-31T04:04:22.736Z,6.61
2022-10-31T04:04:54.979Z,6.61
2022-10-31T04:05:26.900Z,6.61
2022-10-31T04:05:58.809Z,6.61
2022-10-31T04:06:30.741Z,6.61
2022-10-31T04:07:03.141Z,6.61
2022-10-31T04:07:34.611Z,6.61
2022-10-31T04:08:06.512Z,6.61
2022-10-31T04:08:38.747Z,6.61
2022-10-31T04:09:10.726Z,6.61
2022-10-31T04:09:42.324Z,6.61
2022-10-31T04:10:14.693Z,6.61
2022-10-31T04:10:46.596Z,6.61
2022-10-31T04:11:18.852Z,6.50
2022-10-31T04:11:50.503Z,6.50
2022-10-31T04:12:22.481Z,6.50
2022-10-31T04:12:54.452Z,6.50
2022-10-31T04:13:26.586Z,6.50
2022-10-31T04:13:58.351Z,6.50
2022-10-31T04:14:30.373Z,6.50
2022-10-31T04:15:05.336Z,6.50
2022-10-31T04:15:34.476Z,6.50
2022-10-31T04:16:06.219Z,6.50
2022-10-31T04:16:38.300Z,6.50
2022-10-31T04:17:10.499Z,6.50
2022-10-31T04:17:42.223Z,6.50
2022-10-31T04:18:14.165Z,6.50
2022-10-31T04:18:46.137Z,6.50
2022-10-31T04:19:18.077Z,6.38
2022-10-31T04:19:50.262Z,6.38
2022-10-31T04:20:22.233Z,6.38
2022-10-31T04:20:38.225Z,6.38
2022-10-31T04:21:21.996Z,6.38
2022-10-31T04:21:54.064Z,6.50
2022-10-31T04:22:26.128Z,6.50
2022-10-31T04:22:57.938Z,6.50
2022-10-31T04:23:14.781Z,6.50
2022-10-31T04:23:45.973Z,6.50
2022-10-31T04:24:30.002Z,6.50
2022-10-31T04:25:02.821Z,6.38
2022-10-31T04:25:33.819Z,6.38
2022-10-31T04:26:05.948Z,6.38
2022-10-31T04:26:37.885Z,6.38
2022-10-31T04:27:10.025Z,6.38
2022-10-31T04:27:41.747Z,6.38
2022-10-31T04:28:13.935Z,6.38
2022-10-31T04:28:45.755Z,6.38
2022-10-31T04:29:17.757Z,6.38
2022-10-31T04:29:50.944Z,6.38
2022-10-31T04:30:21.953Z,6.38
2022-10-31T04:30:53.675Z,6.38
2022-10-31T04:31:25.813Z,6.38
2022-10-31T04:31:57.469Z,6.38
2022-10-31T04:32:29.676Z,6.38
2022-10-31T04:33:02.084Z,6.38
2022-10-31T04:33:33.621Z,6.38
2022-10-31T04:34:05.776Z,6.38
2022-10-31T04:34:37.496Z,6.38
2022-10-31T04:35:09.785Z,6.38
2022-10-31T04:35:41.592Z,6.38
2022-10-31T04:36:13.304Z,6.38
2022-10-31T04:36:45.422Z,6.38
2022-10-31T04:37:17.445Z,6.38
2022-10-31T04:37:49.496Z,6.38
2022-10-31T04:38:21.214Z,6.38
2022-10-31T04:38:37.483Z,6.38
2022-10-31T04:39:24.287Z,6.38
2022-10-31T04:39:53.348Z,6.38
2022-10-31T04:40:30.697Z,6.38
2022-10-31T04:40:57.387Z,6.27
2022-10-31T04:41:29.260Z,6.27
2022-10-31T04:42:01.579Z,6.27
2022-10-31T04:42:33.209Z,6.27
2022-10-31T04:43:05.465Z,6.27
2022-10-31T04:43:37.189Z,6.27
2022-10-31T04:44:09.083Z,6.27
2022-10-31T04:44:41.206Z,6.38
2022-10-31T04:45:16.833Z,6.38
2022-10-31T04:45:45.082Z,6.38
2022-10-31T04:46:17.028Z,6.38
2022-10-31T04:46:48.942Z,6.38
2022-10-31T04:47:20.891Z,6.38
2022-10-31T04:47:37.053Z,6.38
2022-10-31T04:48:08.918Z,6.38
2022-10-31T04:48:25.064Z,6.38
2022-10-31T04:48:56.932Z,6.38
2022-10-31T04:49:28.825Z,6.38
2022-10-31T04:50:01.250Z,6.38
2022-10-31T04:50:32.841Z,6.38
2022-10-31T04:51:05.255Z,6.38
2022-10-31T04:51:36.705Z,6.38
2022-10-31T04:51:52.887Z,6.38
2022-10-31T04:52:24.882Z,6.38
2022-10-31T04:53:08.922Z,6.38
2022-10-31T04:53:41.044Z,6.38
2022-10-31T04:54:12.582Z,6.38
2022-10-31T04:54:44.822Z,6.38
2022-10-31T04:55:16.976Z,6.38
2022-10-31T04:55:48.622Z,6.38
2022-10-31T04:56:20.817Z,6.38
2022-10-31T04:56:52.531Z,6.38
2022-10-31T04:57:24.565Z,6.38
2022-10-31T04:57:56.925Z,6.38
2022-10-31T04:58:28.488Z,6.27
2022-10-31T04:59:00.557Z,6.27
2022-10-31T04:59:32.577Z,6.27
2022-10-31T05:00:06.453Z,6.27
2022-10-31T05:00:36.439Z,6.27
2022-10-31T05:00:52.792Z,6.27
2022-10-31T05:01:36.613Z,6.27
2022-10-31T05:02:08.579Z,6.27
2022-10-31T05:02:43.637Z,6.27
2022-10-31T05:03:12.266Z,6.27
2022-10-31T05:03:44.462Z,6.27
2022-10-31T05:04:16.331Z,6.27
2022-10-31T05:04:48.229Z,6.27
2022-10-31T05:05:23.488Z,6.27
2022-10-31T05:05:36.305Z,6.27
2022-10-31T05:06:08.352Z,6.27
2022-10-31T05:06:52.153Z,6.27
2022-10-31T05:07:24.336Z,6.27
2022-10-31T05:07:56.156Z,6.27
2022-10-31T05:08:28.156Z,6.27
2022-10-31T05:09:00.293Z,6.27
2022-10-31T05:09:32.680Z,6.27
2022-10-31T05:10:04.931Z,6.27
2022-10-31T05:10:36.146Z,6.27
2022-10-31T05:10:52.300Z,6.27
2022-10-31T05:11:23.973Z,6.27
2022-10-31T05:12:08.057Z,6.27
2022-10-31T05:12:39.839Z,6.27
2022-10-31T05:13:12.049Z,6.27
2022-10-31T05:13:44.193Z,6.27
2022-10-31T05:14:15.943Z,6.27
2022-10-31T05:14:48.738Z,6.27
2022-10-31T05:15:20.232Z,6.27
2022-10-31T05:15:51.855Z,6.27
2022-10-31T05:16:23.957Z,6.27
2022-10-31T05:16:55.857Z,6.27
2022-10-31T05:17:27.610Z,6.27
2022-10-31T05:18:00.231Z,6.27
2022-10-31T05:18:31.870Z,6.27
2022-10-31T05:19:04.388Z,6.27
2022-10-31T05:19:35.744Z,6.27
2022-10-31T05:19:51.624Z,6.27
2022-10-31T05:20:36.031Z,6.27
2022-10-31T05:21:07.736Z,6.27
2022-10-31T05:21:39.505Z,6.27
2022-10-31T05:22:11.536Z,6.27
2022-10-31T05:22:43.656Z,6.27
2022-10-31T05:23:15.558Z,6.27
2022-10-31T05:23:48.570Z,6.27
2022-10-31T05:24:19.354Z,6.27
2022-10-31T05:24:51.417Z,6.27
2022-10-31T05:25:23.840Z,6.38
2022-10-31T05:25:55.389Z,6.38
2022-10-31T05:26:27.259Z,6.38
2022-10-31T05:26:59.612Z,6.38
2022-10-31T05:27:31.298Z,6.38
2022-10-31T05:28:04.164Z,6.38
2022-10-31T05:28:35.427Z,6.38
2022-10-31T05:28:51.379Z,6.38
2022-10-31T05:29:23.125Z,6.38
2022-10-31T05:30:08.265Z,6.38
2022-10-31T05:30:39.201Z,6.38
2022-10-31T05:31:11.169Z,6.38
2022-10-31T05:31:43.069Z,6.38
2022-10-31T05:32:15.373Z,6.38
2022-10-31T05:32:47.013Z,6.38
2022-10-31T05:33:18.899Z,6.38
2022-10-31T05:33:51.078Z,6.38
2022-10-31T05:34:23.069Z,6.38
2022-10-31T05:34:54.929Z,6.38
2022-10-31T05:35:32.208Z,6.38
2022-10-31T05:35:59.017Z,6.38
2022-10-31T05:36:30.971Z,6.38
2022-10-31T05:37:03.547Z,6.38
2022-10-31T05:37:34.910Z,6.38
2022-10-31T05:37:50.948Z,6.38
2022-10-31T05:38:34.870Z,6.27
2022-10-31T05:39:06.890Z,6.27
2022-10-31T05:39:38.632Z,6.27
2022-10-31T05:40:11.038Z,6.27
2022-10-31T05:40:42.653Z,6.38
2022-10-31T05:41:15.010Z,6.38
2022-10-31T05:41:46.597Z,6.38
2022-10-31T05:42:19.025Z,6.38
2022-10-31T05:42:34.789Z,6.38
2022-10-31T05:43:06.633Z,6.38
2022-10-31T05:43:22.654Z,6.38
2022-10-31T05:43:54.578Z,6.38
2022-10-31T05:44:26.705Z,6.38
2022-10-31T05:44:58.515Z,6.38
2022-10-31T05:45:37.738Z,6.38
2022-10-31T05:46:03.132Z,6.38
2022-10-31T05:46:50.638Z,6.38
2022-10-31T05:47:22.376Z,6.38
2022-10-31T05:48:06.464Z,6.38
2022-10-31T05:48:38.352Z,6.38
2022-10-31T05:49:10.546Z,6.27
2022-10-31T05:49:42.386Z,6.27
2022-10-31T05:50:14.870Z,6.27
2022-10-31T05:50:46.286Z,6.27
2022-10-31T05:51:18.347Z,6.27
2022-10-31T05:51:34.354Z,6.27
2022-10-31T05:52:18.397Z,6.22
2022-10-31T05:52:50.328Z,6.27
2022-10-31T05:53:22.073Z,6.27
2022-10-31T05:53:54.214Z,6.27
2022-10-31T05:54:26.193Z,6.27
2022-10-31T05:54:58.159Z,6.27
2022-10-31T05:55:30.479Z,6.27
2022-10-31T05:56:02.704Z,6.22
2022-10-31T05:56:34.061Z,6.22
2022-10-31T05:57:06.147Z,6.22
2022-10-31T05:57:37.944Z,6.22
2022-10-31T05:58:10.007Z,6.22
2022-10-31T05:58:41.967Z,6.22
2022-10-31T05:59:14.065Z,6.22
2022-10-31T05:59:45.836Z,6.22
2022-10-31T06:00:18.455Z,6.22
2022-10-31T06:00:50.026Z,6.22
2022-10-31T06:01:21.928Z,6.22
2022-10-31T06:01:53.878Z,6.22
2022-10-31T06:02:25.878Z,6.22
2022-10-31T06:02:57.892Z,6.22
2022-10-31T06:03:29.925Z,6.22
2022-10-31T06:04:01.994Z,6.22
2022-10-31T06:04:33.817Z,6.22
2022-10-31T06:04:49.937Z,6.22
2022-10-31T06:05:21.993Z,6.22
2022-10-31T06:06:06.124Z,6.22
2022-10-31T06:06:37.774Z,6.22
2022-10-31T06:07:09.744Z,6.11
2022-10-31T06:07:41.864Z,6.11
2022-10-31T06:08:13.812Z,6.11
2022-10-31T06:08:45.919Z,6.11
2022-10-31T06:09:17.765Z,6.11
2022-10-31T06:09:34.059Z,6.11
2022-10-31T06:10:17.978Z,6.11
2022-10-31T06:10:49.662Z,6.11
2022-10-31T06:11:21.696Z,6.11
2022-10-31T06:11:53.569Z,6.11
2022-10-31T06:12:25.685Z,6.11
2022-10-31T06:12:57.640Z,6.11
2022-10-31T06:13:29.710Z,6.11
2022-10-31T06:14:01.670Z,6.11
2022-10-31T06:14:33.604Z,6.11
2022-10-31T06:15:07.025Z,6.11
2022-10-31T06:15:37.348Z,6.11
2022-10-31T06:16:09.495Z,6.11
2022-10-31T06:16:41.484Z,6.11
2022-10-31T06:17:13.419Z,6.11
2022-10-31T06:17:45.506Z,6.11
2022-10-31T06:18:17.294Z,6.11
2022-10-31T06:18:49.320Z,6.11
2022-10-31T06:19:21.492Z,6.11
2022-10-31T06:19:53.254Z,6.11
2022-10-31T06:20:25.521Z,6.11
2022-10-31T06:20:57.261Z,6.11
2022-10-31T06:21:29.440Z,6.11
2022-10-31T06:22:01.415Z,6.11
2022-10-31T06:22:33.226Z,6.11
2022-10-31T06:23:05.793Z,6.11
2022-10-31T06:23:37.317Z,6.11
2022-10-31T06:24:09.200Z,6.11
2022-10-31T06:24:41.093Z,6.11
2022-10-31T06:25:13.318Z,6.11
2022-10-31T06:25:45.365Z,6.11
2022-10-31T06:26:16.896Z,6.11
2022-10-31T06:26:33.153Z,6.11
2022-10-31T06:27:16.926Z,6.11
2022-10-31T06:27:49.060Z,6.11
2022-10-31T06:28:21.130Z,6.11
2022-10-31T06:28:52.841Z,6.11
2022-10-31T06:29:25.017Z,6.11
2022-10-31T06:29:56.957Z,6.11
2022-10-31T06:30:29.383Z,6.11
2022-10-31T06:31:00.930Z,6.11
2022-10-31T06:31:32.783Z,6.11
2022-10-31T06:32:05.125Z,6.11
2022-10-31T06:32:36.922Z,6.11
2022-10-31T06:33:08.925Z,6.11
2022-10-31T06:33:40.844Z,6.11
2022-10-31T06:34:12.666Z,6.11
2022-10-31T06:34:44.929Z,6.11
2022-10-31T06:35:16.681Z,6.11
2022-10-31T06:35:32.824Z,6.22
2022-10-31T06:36:04.923Z,6.22
2022-10-31T06:36:48.631Z,6.22
2022-10-31T06:37:20.649Z,6.22
2022-10-31T06:37:52.470Z,6.22
2022-10-31T06:38:24.698Z,6.22
2022-10-31T06:38:56.616Z,6.22
2022-10-31T06:39:28.482Z,6.22
2022-10-31T06:40:00.834Z,6.27
2022-10-31T06:40:32.314Z,6.27
2022-10-31T06:40:48.926Z,6.27
2022-10-31T06:41:20.392Z,6.27
2022-10-31T06:42:04.912Z,6.27
2022-10-31T06:42:36.336Z,6.27
2022-10-31T06:43:08.393Z,6.27
2022-10-31T06:43:40.438Z,6.27
2022-10-31T06:44:12.392Z,6.27
2022-10-31T06:44:44.297Z,6.27
2022-10-31T06:45:22.649Z,6.38
2022-10-31T06:45:48.371Z,6.38
2022-10-31T06:46:20.233Z,6.38
2022-10-31T06:46:52.155Z,6.27
2022-10-31T06:47:24.299Z,6.27
2022-10-31T06:48:16.034Z,6.27
2022-10-31T06:48:28.223Z,6.27
2022-10-31T06:49:00.002Z,6.27
2022-10-31T06:49:32.008Z,6.27
2022-10-31T06:50:05.214Z,6.27
2022-10-31T06:50:36.166Z,6.27
2022-10-31T06:51:07.850Z,6.27
2022-10-31T06:51:39.987Z,6.38
2022-10-31T06:52:12.089Z,6.38
2022-10-31T06:52:44.012Z,6.38
2022-10-31T06:53:15.987Z,6.38
2022-10-31T06:53:31.921Z,6.38
2022-10-31T06:54:04.759Z,6.50
2022-10-31T06:54:47.936Z,6.50
2022-10-31T06:55:25.452Z,6.50
2022-10-31T06:55:51.617Z,6.50
2022-10-31T06:56:23.967Z,6.50
2022-10-31T06:56:55.769Z,6.50
2022-10-31T06:57:27.764Z,6.50
2022-10-31T06:58:02.825Z,6.50
2022-10-31T06:58:31.687Z,6.50
2022-10-31T06:58:47.766Z,6.61
2022-10-31T06:59:19.549Z,6.61